Time;durP1;ratioP1;P1;durP2;ratioP2;P2;SDS_P1;SDS_P2;PMS_P1;PMS_P2;Temp;Humidity;BMP_temperature;BMP_pressure;BME280_temperature;BME280_humidity;BME280_pressure;Samples;Min_cycle;Max_cycle;Signal;HPM_P1;HPM_P2
2022/03/21 00:00:42;;;;;;;31.10;29.57;;;1.90;99.90;;;;;;4387514;32;20188;-59
2022/03/21 00:03:12;;;;;;;29.73;28.17;;;1.90;99.90;;;;;;4390030;32;20160;-59
2022/03/21 00:05:39;;;;;;;28.17;26.77;;;1.80;99.90;;;;;;4391489;32;20188;-60
2022/03/21 00:08:06;;;;;;;29.23;27.77;;;1.80;99.90;;;;;;4387497;32;20220;-59
2022/03/21 00:10:34;;;;;;;27.57;26.33;;;1.80;99.90;;;;;;4391566;32;20601;-59
2022/03/21 00:13:01;;;;;;;30.77;29.17;;;1.80;99.90;;;;;;4392321;32;20214;-59
2022/03/21 00:15:29;;;;;;;28.47;27.07;;;1.80;99.90;;;;;;4392563;32;20164;-59
2022/03/21 00:17:57;;;;;;;31.00;29.50;;;1.80;99.90;;;;;;4391488;32;20151;-59
2022/03/21 00:20:25;;;;;;;30.83;29.17;;;1.70;99.90;;;;;;4392532;32;20237;-57
2022/03/21 00:22:53;;;;;;;30.33;28.93;;;1.70;99.90;;;;;;4391434;32;20152;-59
2022/03/21 00:25:20;;;;;;;29.40;28.00;;;1.70;99.90;;;;;;4391939;32;20220;-59
2022/03/21 00:27:47;;;;;;;29.57;27.97;;;1.70;99.90;;;;;;4392022;32;20164;-59
2022/03/21 00:30:14;;;;;;;28.83;27.43;;;1.60;99.90;;;;;;4393261;32;20192;-58
2022/03/21 00:32:42;;;;;;;28.33;26.90;;;1.60;99.90;;;;;;4392351;32;20492;-58
2022/03/21 00:35:12;;;;;;;30.13;28.63;;;1.60;99.90;;;;;;4392053;32;20162;-58
2022/03/21 00:37:40;;;;;;;30.63;29.27;;;1.60;99.90;;;;;;4391850;32;20156;-59
2022/03/21 00:40:11;;;;;;;29.83;28.43;;;1.50;99.90;;;;;;4391848;32;20632;-59
2022/03/21 00:42:38;;;;;;;29.13;27.73;;;1.50;99.90;;;;;;4391661;32;20149;-58
2022/03/21 00:45:09;;;;;;;30.03;28.30;;;1.50;99.90;;;;;;4392684;32;20524;-58
2022/03/21 00:47:36;;;;;;;30.63;29.00;;;1.50;99.90;;;;;;4390856;32;20149;-57
2022/03/21 00:50:03;;;;;;;30.33;29.03;;;1.50;99.90;;;;;;4391446;32;20207;-59
2022/03/21 00:52:32;;;;;;;30.20;28.80;;;1.50;99.90;;;;;;4392161;32;20195;-59
2022/03/21 00:54:59;;;;;;;31.60;30.00;;;1.50;99.90;;;;;;4391669;32;20235;-59
2022/03/21 00:57:26;;;;;;;30.93;29.37;;;1.50;99.90;;;;;;4393685;32;20224;-59
2022/03/21 00:59:53;;;;;;;31.77;30.07;;;1.40;99.90;;;;;;4390804;32;20173;-59
2022/03/21 01:02:20;;;;;;;30.90;29.47;;;1.40;99.90;;;;;;4391851;32;20178;-59
2022/03/21 01:04:46;;;;;;;31.57;30.10;;;1.30;99.90;;;;;;4390710;32;20249;-59
2022/03/21 01:07:13;;;;;;;31.83;30.37;;;1.30;99.90;;;;;;4392343;32;20533;-57
2022/03/21 01:09:41;;;;;;;31.43;30.00;;;1.30;99.90;;;;;;4390466;32;20528;-58
2022/03/21 01:12:09;;;;;;;33.93;32.30;;;1.30;99.90;;;;;;4392658;32;20168;-58
2022/03/21 01:14:36;;;;;;;30.93;29.47;;;1.30;99.90;;;;;;4392722;32;20215;-58
2022/03/21 01:17:04;;;;;;;33.50;31.90;;;1.30;99.90;;;;;;4392092;32;20204;-59
2022/03/21 01:19:31;;;;;;;32.70;31.03;;;1.20;99.90;;;;;;4389747;32;20510;-58
2022/03/21 01:21:58;;;;;;;33.03;31.17;;;1.20;99.90;;;;;;4390209;32;20565;-60
2022/03/21 01:24:25;;;;;;;33.07;31.40;;;1.10;99.90;;;;;;4392395;32;20539;-59
2022/03/21 01:26:54;;;;;;;33.87;32.07;;;1.20;99.90;;;;;;4390046;32;20165;-58
2022/03/21 01:29:21;;;;;;;34.67;32.97;;;1.20;99.90;;;;;;4390489;32;20640;-58
2022/03/21 01:31:47;;;;;;;33.40;31.80;;;1.20;99.90;;;;;;4391065;32;20351;-58
2022/03/21 01:34:14;;;;;;;33.60;31.93;;;1.20;99.90;;;;;;4391489;32;20214;-59
2022/03/21 01:36:41;;;;;;;31.83;29.97;;;1.10;99.90;;;;;;4390959;32;20172;-59
2022/03/21 01:39:08;;;;;;;32.73;31.10;;;1.20;99.90;;;;;;4391116;32;20159;-59
2022/03/21 01:41:35;;;;;;;35.20;33.43;;;1.10;99.90;;;;;;4390609;32;20474;-57
2022/03/21 01:44:05;;;;;;;34.03;32.53;;;1.10;99.90;;;;;;4391501;32;20521;-59
2022/03/21 01:46:32;;;;;;;33.27;31.57;;;1.10;99.90;;;;;;4390799;32;20156;-58
2022/03/21 01:48:59;;;;;;;33.93;32.33;;;1.10;99.90;;;;;;4386188;32;20165;-57
2022/03/21 01:51:30;;;;;;;33.87;32.27;;;1.00;99.90;;;;;;4384573;32;20186;-59
2022/03/21 01:56:48;;;;;;;35.80;34.07;;;1.00;99.90;;;;;;4380510;32;20655;-59
2022/03/21 01:59:27;;;;;;;33.30;31.70;;;1.00;99.90;;;;;;4384942;32;20524;-57
2022/03/21 02:01:55;;;;;;;36.40;34.73;;;1.00;99.90;;;;;;4383991;32;20517;-58
2022/03/21 02:04:23;;;;;;;33.43;31.63;;;1.00;99.90;;;;;;4388262;32;20171;-59
2022/03/21 02:06:53;;;;;;;33.57;32.07;;;1.00;99.90;;;;;;4385795;32;20546;-57
2022/03/21 02:09:20;;;;;;;34.67;32.97;;;1.00;99.90;;;;;;4376633;32;20282;-57
2022/03/21 02:11:47;;;;;;;35.97;34.20;;;1.00;99.90;;;;;;4380542;32;20535;-58
2022/03/21 02:14:19;;;;;;;36.43;34.73;;;1.00;99.90;;;;;;4381361;32;20203;-59
2022/03/21 02:16:46;;;;;;;36.47;34.43;;;0.90;99.90;;;;;;4380443;32;20163;-58
2022/03/21 02:19:27;;;;;;;38.70;36.90;;;1.00;99.90;;;;;;4391041;32;20184;-58
2022/03/21 02:22:07;;;;;;;36.77;34.87;;;1.00;99.90;;;;;;4389558;32;20231;-58
2022/03/21 02:24:41;;;;;;;38.83;36.93;;;1.00;99.90;;;;;;4390273;32;20198;-58
2022/03/21 02:27:12;;;;;;;33.87;32.47;;;1.00;99.90;;;;;;4391358;32;20222;-58
2022/03/21 02:29:41;;;;;;;32.67;31.17;;;1.00;99.90;;;;;;4387040;32;20620;-58
2022/03/21 02:32:09;;;;;;;37.90;36.20;;;1.00;99.90;;;;;;4390537;32;20208;-58
2022/03/21 02:34:38;;;;;;;32.30;30.90;;;1.00;99.90;;;;;;4391722;32;20656;-58
2022/03/21 02:37:08;;;;;;;33.77;32.27;;;1.00;99.90;;;;;;4389335;32;20636;-58
2022/03/21 02:39:36;;;;;;;31.57;30.00;;;1.00;99.90;;;;;;4390629;32;20251;-57
2022/03/21 02:42:04;;;;;;;32.93;31.20;;;1.00;99.90;;;;;;4386413;32;20224;-58
2022/03/21 02:44:35;;;;;;;33.73;32.03;;;1.00;99.90;;;;;;4390755;32;20152;-58
2022/03/21 02:47:02;;;;;;;33.43;31.57;;;1.00;99.90;;;;;;4389106;32;20229;-57
2022/03/21 02:49:28;;;;;;;30.80;29.27;;;1.10;99.90;;;;;;4389731;32;20208;-60
2022/03/21 02:51:56;;;;;;;31.57;29.97;;;1.10;99.90;;;;;;4388480;32;20195;-58
2022/03/21 02:54:23;;;;;;;32.70;31.10;;;1.10;99.90;;;;;;4390251;32;20211;-58
2022/03/21 02:56:51;;;;;;;34.60;32.70;;;1.20;99.90;;;;;;4389772;32;20226;-58
2022/03/21 02:59:17;;;;;;;32.60;31.00;;;1.20;99.90;;;;;;4390297;32;20622;-57
2022/03/21 03:01:46;;;;;;;30.63;29.27;;;1.30;99.90;;;;;;4389699;32;20570;-59
2022/03/21 03:04:13;;;;;;;29.50;27.97;;;1.30;99.90;;;;;;4389919;32;20156;-56
2022/03/21 03:06:40;;;;;;;29.20;28.00;;;1.30;99.90;;;;;;4391398;32;20569;-57
2022/03/21 03:09:10;;;;;;;31.67;29.87;;;1.30;99.90;;;;;;4388491;32;20172;-58
2022/03/21 03:11:37;;;;;;;29.60;28.10;;;1.30;99.90;;;;;;4387181;32;20208;-56
2022/03/21 03:14:04;;;;;;;31.57;30.03;;;1.20;99.90;;;;;;4391200;32;20206;-57
2022/03/21 03:16:31;;;;;;;31.43;30.03;;;1.20;99.90;;;;;;4389871;32;20174;-58
2022/03/21 03:18:59;;;;;;;32.20;30.53;;;1.20;99.90;;;;;;4389416;32;20224;-59
2022/03/21 03:21:27;;;;;;;33.47;31.70;;;1.20;99.90;;;;;;4390068;32;20188;-59
2022/03/21 03:23:55;;;;;;;31.03;29.43;;;1.20;99.90;;;;;;4388738;32;20250;-57
2022/03/21 03:26:22;;;;;;;30.23;28.70;;;1.20;99.90;;;;;;4390654;32;20168;-58
2022/03/21 03:28:49;;;;;;;31.63;30.10;;;1.20;99.90;;;;;;4391217;32;20299;-57
2022/03/21 03:31:17;;;;;;;32.43;30.97;;;1.20;99.90;;;;;;4390928;32;20152;-59
2022/03/21 03:33:45;;;;;;;32.90;31.30;;;1.20;99.90;;;;;;4388286;32;20216;-57
2022/03/21 03:36:16;;;;;;;29.70;28.20;;;1.20;99.90;;;;;;4389008;32;20160;-56
2022/03/21 03:38:43;;;;;;;28.83;27.43;;;1.30;99.90;;;;;;4390073;32;20156;-57
2022/03/21 03:41:10;;;;;;;31.80;30.20;;;1.30;99.90;;;;;;4388272;32;20239;-58
2022/03/21 03:43:37;;;;;;;29.33;28.13;;;1.30;99.90;;;;;;4387725;32;20152;-56
2022/03/21 03:46:04;;;;;;;30.07;28.57;;;1.30;99.90;;;;;;4389607;32;20531;-60
2022/03/21 03:48:31;;;;;;;32.13;30.57;;;1.30;99.90;;;;;;4389218;32;20155;-60
2022/03/21 03:51:00;;;;;;;31.17;29.67;;;1.30;99.90;;;;;;4390067;32;20194;-58
2022/03/21 03:53:28;;;;;;;29.93;28.47;;;1.30;99.90;;;;;;4388364;32;20509;-59
2022/03/21 03:55:55;;;;;;;31.20;29.70;;;1.30;99.90;;;;;;4387797;32;20252;-56
2022/03/21 03:58:22;;;;;;;35.93;34.23;;;1.20;99.90;;;;;;4389163;32;20215;-56
2022/03/21 04:00:49;;;;;;;30.23;28.40;;;1.30;99.90;;;;;;4389537;32;20628;-57
2022/03/21 04:06:00;;;;;;;32.17;30.50;;;1.30;99.90;;;;;;4389521;32;20175;-57
2022/03/21 04:08:28;;;;;;;31.13;29.43;;;1.30;99.90;;;;;;4387840;32;20156;-58
2022/03/21 04:10:55;;;;;;;29.17;27.77;;;1.20;99.90;;;;;;4387207;32;20640;-60
2022/03/21 04:13:22;;;;;;;28.90;27.60;;;1.20;99.90;;;;;;4389457;32;20190;-59
2022/03/21 04:15:49;;;;;;;27.97;26.60;;;1.30;99.90;;;;;;4389294;32;20155;-60
2022/03/21 04:18:15;;;;;;;27.70;26.33;;;1.20;99.90;;;;;;4387960;32;20204;-59
2022/03/21 04:20:42;;;;;;;28.17;26.77;;;1.30;99.90;;;;;;4390487;32;20171;-59
2022/03/21 04:23:11;;;;;;;28.83;27.27;;;1.30;99.90;;;;;;4389399;32;20160;-58
2022/03/21 04:25:39;;;;;;;28.13;26.63;;;1.30;99.90;;;;;;4387865;32;20208;-57
2022/03/21 04:28:09;;;;;;;28.60;27.13;;;1.30;99.90;;;;;;4389235;32;20156;-59
2022/03/21 04:30:37;;;;;;;30.57;29.17;;;1.30;99.90;;;;;;4389732;32;20160;-57
2022/03/21 04:33:04;;;;;;;28.53;27.27;;;1.30;99.90;;;;;;4389722;32;20152;-59
2022/03/21 04:35:31;;;;;;;27.93;26.63;;;1.30;99.90;;;;;;4388666;32;20577;-59
2022/03/21 04:37:58;;;;;;;28.00;26.63;;;1.30;99.90;;;;;;4387994;32;20217;-58
2022/03/21 04:40:25;;;;;;;30.20;28.70;;;1.30;99.90;;;;;;4389505;32;20176;-59
2022/03/21 04:42:53;;;;;;;30.17;28.67;;;1.30;99.90;;;;;;4389257;32;20208;-57
2022/03/21 04:45:22;;;;;;;28.90;27.43;;;1.30;99.90;;;;;;4384331;32;20279;-57
2022/03/21 04:47:49;;;;;;;29.00;27.33;;;1.30;99.90;;;;;;4387418;32;20204;-57
2022/03/21 04:50:16;;;;;;;27.63;26.30;;;1.30;99.90;;;;;;4389557;32;20216;-57
2022/03/21 04:52:43;;;;;;;27.83;26.60;;;1.30;99.90;;;;;;4389272;32;20183;-57
2022/03/21 04:55:10;;;;;;;27.73;26.30;;;1.20;99.90;;;;;;4389131;32;20177;-58
2022/03/21 04:57:37;;;;;;;27.00;25.60;;;1.30;99.90;;;;;;4390821;32;20200;-57
2022/03/21 05:00:06;;;;;;;26.13;24.83;;;1.30;99.90;;;;;;4392134;32;20523;-60
2022/03/21 05:02:33;;;;;;;26.50;25.27;;;1.30;99.90;;;;;;4391229;32;20607;-56
2022/03/21 05:05:00;;;;;;;27.47;25.97;;;1.30;99.90;;;;;;4388308;32;20164;-58
2022/03/21 05:07:27;;;;;;;29.23;27.70;;;1.30;99.90;;;;;;4391815;32;20178;-58
2022/03/21 05:09:53;;;;;;;30.03;28.23;;;1.30;99.90;;;;;;4392682;32;20223;-58
2022/03/21 05:12:20;;;;;;;28.60;27.10;;;1.30;99.90;;;;;;4390544;32;20154;-57
2022/03/21 05:14:47;;;;;;;29.47;28.07;;;1.30;99.90;;;;;;4391570;32;20214;-58
2022/03/21 05:17:17;;;;;;;28.43;26.77;;;1.30;99.90;;;;;;4391753;32;20522;-58
2022/03/21 05:19:44;;;;;;;27.63;25.93;;;1.30;99.90;;;;;;4389669;32;20175;-56
2022/03/21 05:22:11;;;;;;;28.03;26.43;;;1.30;99.90;;;;;;4391784;32;20164;-57
2022/03/21 05:35:55;;;;;;;26.77;25.37;;;1.20;99.90;;;;;;4341559;33;20493;-57
2022/03/21 05:38:23;;;;;;;25.90;24.50;;;1.20;99.90;;;;;;4344454;33;20639;-59
2022/03/21 05:40:50;;;;;;;26.43;24.73;;;1.20;99.90;;;;;;4344449;33;20640;-59
2022/03/21 05:43:17;;;;;;;27.33;26.03;;;1.20;99.90;;;;;;4344188;33;20220;-58
2022/03/21 05:45:45;;;;;;;27.20;25.70;;;1.20;99.90;;;;;;4342626;33;20700;-57
2022/03/21 05:50:57;;;;;;;28.53;27.00;;;1.10;99.90;;;;;;4342631;33;20179;-57
2022/03/21 05:53:24;;;;;;;27.50;26.00;;;1.10;99.90;;;;;;4343468;33;20183;-58
2022/03/21 05:55:51;;;;;;;27.53;26.13;;;1.10;99.90;;;;;;4342515;33;20161;-58
2022/03/21 05:58:18;;;;;;;28.00;26.40;;;1.20;99.90;;;;;;4343783;33;20247;-59
2022/03/21 06:00:45;;;;;;;26.57;25.17;;;1.30;99.90;;;;;;4346074;33;20153;-59
2022/03/21 06:03:13;;;;;;;27.00;25.40;;;1.30;99.90;;;;;;4343894;33;20196;-58
2022/03/21 06:05:40;;;;;;;26.33;25.03;;;1.40;99.90;;;;;;4343301;33;20199;-58
2022/03/21 06:08:08;;;;;;;25.40;24.00;;;1.40;99.90;;;;;;4384729;32;20180;-60
2022/03/21 06:10:36;;;;;;;24.20;23.00;;;1.50;99.90;;;;;;4389520;32;20156;-59
2022/03/21 06:13:05;;;;;;;26.23;24.93;;;1.50;99.90;;;;;;4388205;32;20166;-58
2022/03/21 06:15:32;;;;;;;24.27;23.00;;;1.60;99.90;;;;;;4390757;32;20209;-59
2022/03/21 06:17:59;;;;;;;24.33;22.87;;;1.60;99.90;;;;;;4389060;32;20607;-58
2022/03/21 06:20:27;;;;;;;26.77;25.23;;;1.70;99.90;;;;;;4390047;32;20156;-59
2022/03/21 06:22:54;;;;;;;24.97;23.60;;;1.70;99.90;;;;;;4389979;32;20240;-60
2022/03/21 06:25:21;;;;;;;25.80;24.13;;;1.70;99.90;;;;;;4388285;32;20172;-59
2022/03/21 06:27:48;;;;;;;26.47;24.97;;;1.80;99.90;;;;;;4387850;32;20161;-58
2022/03/21 06:30:15;;;;;;;24.43;23.17;;;1.90;99.90;;;;;;4390692;32;20168;-58
2022/03/21 06:32:42;;;;;;;25.77;24.30;;;2.00;99.90;;;;;;4388423;32;20203;-57
2022/03/21 06:35:10;;;;;;;23.20;21.87;;;2.10;99.90;;;;;;4389993;32;20156;-59
2022/03/21 06:37:39;;;;;;;22.53;21.33;;;2.10;99.90;;;;;;4390291;32;20269;-57
2022/03/21 06:40:07;;;;;;;22.13;21.13;;;2.20;99.90;;;;;;4388077;32;20244;-56
2022/03/21 06:42:35;;;;;;;26.30;24.87;;;2.30;99.90;;;;;;4389302;32;20176;-59
2022/03/21 06:45:03;;;;;;;22.17;21.07;;;2.40;99.90;;;;;;4390209;32;20548;-57
2022/03/21 06:47:30;;;;;;;24.37;23.13;;;2.50;99.90;;;;;;4387927;32;20214;-58
2022/03/21 06:49:57;;;;;;;22.57;21.57;;;2.60;99.90;;;;;;4388698;32;20265;-58
2022/03/21 06:52:23;;;;;;;24.70;23.53;;;2.70;99.90;;;;;;4387925;32;20186;-59
2022/03/21 06:54:53;;;;;;;22.07;20.77;;;2.80;99.90;;;;;;4388853;32;20515;-58
2022/03/21 06:57:21;;;;;;;23.67;22.50;;;3.00;99.90;;;;;;4385408;32;20259;-59
2022/03/21 06:59:48;;;;;;;21.93;20.73;;;3.10;99.90;;;;;;4390088;32;20521;-59
2022/03/21 07:02:16;;;;;;;21.77;20.77;;;3.30;99.90;;;;;;4390933;32;20207;-59
2022/03/21 07:04:43;;;;;;;21.77;20.87;;;3.50;99.90;;;;;;4387126;32;20191;-59
2022/03/21 07:07:10;;;;;;;25.87;24.37;;;3.60;99.90;;;;;;4388557;32;20151;-59
2022/03/21 07:09:37;;;;;;;23.57;22.10;;;3.70;99.90;;;;;;4388538;32;20592;-60
2022/03/21 07:12:06;;;;;;;21.13;19.97;;;3.90;99.90;;;;;;4389306;32;20160;-59
2022/03/21 07:14:33;;;;;;;22.13;21.23;;;4.00;99.90;;;;;;4389034;32;20149;-60
2022/03/21 07:17:00;;;;;;;20.77;19.73;;;4.20;99.90;;;;;;4386972;32;20205;-60
2022/03/21 07:19:26;;;;;;;23.23;22.13;;;4.40;99.90;;;;;;4386749;32;20187;-60
2022/03/21 07:21:53;;;;;;;22.43;21.43;;;4.60;99.90;;;;;;4388866;32;20182;-60
2022/03/21 07:24:20;;;;;;;21.77;20.83;;;4.80;99.90;;;;;;4388439;32;20198;-61
2022/03/21 07:26:47;;;;;;;22.27;21.27;;;5.00;99.90;;;;;;4388942;32;20163;-59
2022/03/21 07:29:15;;;;;;;22.83;21.83;;;5.10;99.90;;;;;;4387565;32;20210;-58
2022/03/21 07:31:42;;;;;;;21.77;20.70;;;5.30;99.90;;;;;;4390174;32;20183;-60
2022/03/21 07:34:09;;;;;;;24.07;23.07;;;5.50;99.90;;;;;;4388615;32;20159;-59
2022/03/21 07:36:36;;;;;;;25.63;24.43;;;5.60;99.90;;;;;;4389298;32;20201;-58
2022/03/21 07:39:04;;;;;;;25.07;23.97;;;5.80;99.90;;;;;;4387913;32;20207;-59
2022/03/21 07:41:31;;;;;;;26.20;25.00;;;5.90;99.90;;;;;;4389574;32;20178;-58
2022/03/21 07:43:58;;;;;;;25.80;24.60;;;6.00;99.90;;;;;;4389820;32;20188;-59
2022/03/21 07:49:12;;;;;;;25.37;24.27;;;6.40;99.90;;;;;;4382295;32;20579;-59
2022/03/21 07:51:39;;;;;;;29.83;28.27;;;6.50;99.90;;;;;;4377769;32;20577;-59
2022/03/21 07:54:06;;;;;;;27.77;26.60;;;6.70;99.90;;;;;;4383008;32;20185;-59
2022/03/21 07:56:33;;;;;;;30.73;29.37;;;6.90;99.90;;;;;;4389665;32;20178;-60
2022/03/21 07:59:01;;;;;;;35.33;33.73;;;7.10;99.90;;;;;;4389175;32;20155;-59
2022/03/21 08:01:30;;;;;;;34.50;32.87;;;7.30;99.90;;;;;;4327695;32;2047869;-59
2022/03/21 08:03:59;;;;;;;31.77;30.33;;;7.50;99.90;;;;;;4390485;32;20198;-60
2022/03/21 08:06:27;;;;;;;38.83;36.93;;;7.60;99.90;;;;;;4391111;32;20206;-59
2022/03/21 08:08:54;;;;;;;34.93;33.30;;;7.80;99.90;;;;;;4388111;32;20209;-60
2022/03/21 08:11:22;;;;;;;38.50;36.60;;;8.00;99.90;;;;;;4389460;32;20203;-60
2022/03/21 08:13:50;;;;;;;37.20;35.63;;;8.20;99.90;;;;;;4390851;32;20244;-59
2022/03/21 08:16:19;;;;;;;39.53;37.77;;;8.30;99.90;;;;;;4389585;32;20157;-60
2022/03/21 08:18:50;;;;;;;37.17;35.43;;;8.50;99.90;;;;;;4389444;32;20148;-60
2022/03/21 08:21:17;;;;;;;38.23;36.50;;;8.60;99.90;;;;;;4388674;32;20510;-59
2022/03/21 08:23:45;;;;;;;42.67;40.70;;;8.80;99.90;;;;;;4386147;32;20206;-60
2022/03/21 08:26:12;;;;;;;44.80;42.90;;;9.00;99.90;;;;;;4385548;32;20167;-59
2022/03/21 08:28:39;;;;;;;41.33;39.33;;;9.10;99.90;;;;;;4389962;32;20213;-59
2022/03/21 08:31:06;;;;;;;43.73;41.77;;;9.40;99.90;;;;;;4390395;32;20464;-60
2022/03/21 08:33:33;;;;;;;41.63;39.87;;;9.60;99.90;;;;;;4392732;32;20156;-58
2022/03/21 08:36:01;;;;;;;52.10;49.77;;;9.80;99.90;;;;;;4391201;32;20178;-59
2022/03/21 08:38:28;;;;;;;48.03;45.90;;;10.00;99.90;;;;;;4391952;32;20152;-59
2022/03/21 08:40:56;;;;;;;52.13;49.87;;;10.30;99.90;;;;;;4390830;32;20215;-60
2022/03/21 08:43:23;;;;;;;53.83;51.23;;;10.60;99.90;;;;;;4389359;32;20211;-59
2022/03/21 08:45:50;;;;;;;58.43;55.93;;;10.80;99.90;;;;;;4392046;32;20189;-60
2022/03/21 08:48:17;;;;;;;55.03;52.60;;;10.90;99.90;;;;;;4392110;32;20190;-60
2022/03/21 08:50:44;;;;;;;62.47;59.73;;;11.00;99.90;;;;;;4391134;32;20168;-60
2022/03/21 08:53:12;;;;;;;62.63;59.93;;;11.20;99.90;;;;;;4392170;32;20164;-61
2022/03/21 08:55:40;;;;;;;59.60;57.00;;;11.20;99.90;;;;;;4392137;32;20267;-59
2022/03/21 08:58:06;;;;;;;62.97;60.07;;;11.30;99.90;;;;;;4393508;32;20584;-60
2022/03/21 09:00:34;;;;;;;60.63;57.87;;;11.30;99.90;;;;;;4389327;32;20159;-60
2022/03/21 09:03:00;;;;;;;61.70;58.90;;;11.30;99.90;;;;;;4392869;32;20175;-60
2022/03/21 09:05:28;;;;;;;62.20;59.47;;;11.30;99.90;;;;;;4388986;32;20198;-60
2022/03/21 09:07:55;;;;;;;68.27;65.30;;;11.30;99.90;;;;;;4388949;32;20180;-60
2022/03/21 09:10:23;;;;;;;68.17;65.17;;;11.40;99.90;;;;;;4390806;32;20219;-60
2022/03/21 09:12:50;;;;;;;71.97;69.00;;;11.40;99.90;;;;;;4391205;32;20167;-62
2022/03/21 09:15:18;;;;;;;66.40;63.50;;;11.50;99.90;;;;;;4389872;32;20176;-60
2022/03/21 09:17:46;;;;;;;59.73;56.87;;;11.50;99.90;;;;;;4389473;32;20148;-61
2022/03/21 09:20:14;;;;;;;62.10;59.33;;;11.60;99.70;;;;;;4390909;32;20151;-60
2022/03/21 09:22:41;;;;;;;62.13;59.30;;;11.60;99.20;;;;;;4391021;32;20163;-60
2022/03/21 09:25:09;;;;;;;54.03;51.67;;;11.60;99.50;;;;;;4392789;32;20160;-59
2022/03/21 09:27:41;;;;;;;47.73;45.57;;;11.70;99.50;;;;;;4391698;32;20214;-61
2022/03/21 09:30:09;;;;;;;52.57;50.03;;;11.80;99.70;;;;;;4391300;32;20160;-61
2022/03/21 09:32:36;;;;;;;44.97;42.77;;;11.90;99.30;;;;;;4389941;32;20593;-59
2022/03/21 09:35:03;;;;;;;44.47;42.60;;;11.90;98.60;;;;;;4392022;32;20466;-61
2022/03/21 09:37:30;;;;;;;45.10;43.20;;;12.00;98.30;;;;;;4391310;32;20517;-61
2022/03/21 09:39:57;;;;;;;45.17;43.20;;;12.10;98.20;;;;;;4391453;32;20164;-60
2022/03/21 09:42:25;;;;;;;43.93;42.03;;;12.20;97.80;;;;;;4387830;32;20271;-60
2022/03/21 09:44:54;;;;;;;43.47;41.57;;;12.30;97.20;;;;;;4391751;32;20514;-61
2022/03/21 09:50:10;;;;;;;45.10;42.80;;;12.40;96.60;;;;;;4389433;32;20217;-60
2022/03/21 09:52:37;;;;;;;42.37;40.50;;;12.50;96.10;;;;;;4390215;32;20180;-61
2022/03/21 09:55:07;;;;;;;45.90;43.83;;;12.60;95.50;;;;;;4392183;32;20219;-61
2022/03/21 09:57:34;;;;;;;46.83;44.63;;;12.60;95.20;;;;;;4392108;32;20152;-61
2022/03/21 10:00:03;;;;;;;47.20;44.90;;;12.70;95.40;;;;;;4391225;32;20183;-60
2022/03/21 10:02:30;;;;;;;37.57;35.77;;;12.70;94.10;;;;;;4388445;32;20488;-60
2022/03/21 10:04:56;;;;;;;37.97;36.23;;;12.70;93.60;;;;;;4391185;32;20168;-60
2022/03/21 10:07:27;;;;;;;37.07;35.27;;;12.70;93.10;;;;;;4390911;32;20191;-60
2022/03/21 10:10:07;;;;;;;39.27;37.43;;;12.80;93.00;;;;;;4389773;32;20174;-61
2022/03/21 10:12:34;;;;;;;36.23;34.57;;;12.80;92.30;;;;;;4382976;32;20168;-58
2022/03/21 10:15:05;;;;;;;32.57;30.97;;;12.90;92.70;;;;;;4377132;32;20561;-58
2022/03/21 10:17:32;;;;;;;32.77;31.10;;;13.00;91.30;;;;;;4376766;32;20179;-59
2022/03/21 10:19:59;;;;;;;35.50;33.70;;;13.10;90.80;;;;;;4376735;32;20583;-60
2022/03/21 10:22:37;;;;;;;30.37;28.80;;;13.10;90.60;;;;;;4378838;32;20168;-58
2022/03/21 10:25:05;;;;;;;22.43;21.23;;;13.20;86.50;;;;;;4387117;32;20164;-60
2022/03/21 10:27:34;;;;;;;22.03;20.97;;;13.30;83.20;;;;;;4376555;32;20171;-58
2022/03/21 10:30:06;;;;;;;22.13;21.10;;;13.40;82.80;;;;;;4377474;32;20156;-59
2022/03/21 10:32:35;;;;;;;22.23;21.03;;;13.50;80.60;;;;;;4376589;32;20163;-59
2022/03/21 10:35:05;;;;;;;19.40;18.50;;;13.60;80.60;;;;;;4377251;32;20205;-60
2022/03/21 10:37:46;;;;;;;19.10;18.10;;;13.60;78.30;;;;;;4378077;32;20152;-57
2022/03/21 10:40:22;;;;;;;19.37;18.40;;;13.60;78.50;;;;;;4378188;32;20139;-60
2022/03/21 10:42:55;;;;;;;18.03;17.10;;;13.50;78.60;;;;;;4388225;32;20179;-60
2022/03/21 10:45:24;;;;;;;19.83;18.83;;;13.60;80.20;;;;;;4392099;32;20209;-61
2022/03/21 10:47:51;;;;;;;18.83;17.93;;;13.70;78.80;;;;;;4389855;32;20171;-59
2022/03/21 10:50:28;;;;;;;21.17;20.17;;;13.80;78.60;;;;;;4389886;32;20214;-60
2022/03/21 10:53:12;;;;;;;18.90;17.90;;;13.90;79.80;;;;;;4390481;32;20476;-60
2022/03/21 10:55:40;;;;;;;22.03;21.03;;;13.90;80.00;;;;;;4390955;32;20175;-60
2022/03/21 10:58:07;;;;;;;20.63;19.60;;;14.10;81.20;;;;;;4390241;32;20233;-60
2022/03/21 11:00:36;;;;;;;20.53;19.40;;;14.20;81.10;;;;;;4384362;32;20178;-60
2022/03/21 11:03:06;;;;;;;22.40;21.27;;;14.10;79.40;;;;;;4392346;32;20164;-60
2022/03/21 11:05:36;;;;;;;26.17;25.03;;;14.10;80.80;;;;;;4391012;32;20174;-60
2022/03/21 11:08:04;;;;;;;32.00;30.50;;;14.20;82.00;;;;;;4391176;32;20163;-60
2022/03/21 11:10:31;;;;;;;25.13;23.63;;;14.20;82.30;;;;;;4378237;32;20577;-60
2022/03/21 11:13:01;;;;;;;25.53;24.33;;;14.30;80.90;;;;;;4376089;32;20171;-59
2022/03/21 11:15:28;;;;;;;27.23;26.10;;;14.40;80.90;;;;;;4379169;32;20503;-59
2022/03/21 11:17:57;;;;;;;27.93;26.50;;;14.40;82.00;;;;;;4389592;32;20179;-59
2022/03/21 11:20:31;;;;;;;31.80;30.30;;;14.50;82.30;;;;;;4380818;32;20201;-60
2022/03/21 11:22:58;;;;;;;29.97;28.67;;;14.60;82.10;;;;;;4376412;32;20167;-60
2022/03/21 11:25:30;;;;;;;32.73;31.23;;;14.60;81.70;;;;;;4376288;32;20163;-60
2022/03/21 11:28:28;;;;;;;33.57;31.97;;;14.50;81.90;;;;;;4375769;32;20163;-60
2022/03/21 11:31:12;;;;;;;30.87;29.43;;;14.60;83.20;;;;;;4345804;32;20627;-60
2022/03/21 11:33:46;;;;;;;41.93;39.87;;;14.60;83.20;;;;;;4357595;32;20195;-60
2022/03/21 11:36:14;;;;;;;41.17;39.27;;;14.50;85.20;;;;;;4358553;32;20303;-60
2022/03/21 11:38:45;;;;;;;44.53;42.40;;;14.50;85.10;;;;;;4359962;32;20288;-60
2022/03/21 11:41:16;;;;;;;43.63;41.67;;;14.60;86.60;;;;;;4356425;32;20518;-60
2022/03/21 11:43:44;;;;;;;41.57;39.77;;;14.80;86.30;;;;;;4358592;33;20168;-60
2022/03/21 11:46:29;;;;;;;49.93;47.70;;;14.80;85.30;;;;;;4358493;33;20192;-60
2022/03/21 11:48:59;;;;;;;47.43;45.33;;;14.90;86.00;;;;;;4358174;33;20199;-60
2022/03/21 11:51:29;;;;;;;51.23;48.93;;;14.90;87.30;;;;;;4347662;32;20446;-60
2022/03/21 11:53:57;;;;;;;48.73;46.40;;;14.90;87.20;;;;;;4343532;33;20203;-60
2022/03/21 11:56:56;;;;;;;55.80;53.27;;;14.70;86.50;;;;;;4343530;33;20180;-60
2022/03/21 12:00:03;;;;;;;48.43;46.17;;;14.70;87.30;;;;;;4343268;33;20213;-60
2022/03/21 12:02:59;;;;;;;51.07;48.90;;;14.80;88.30;;;;;;4343671;33;20161;-60
2022/03/21 12:05:53;;;;;;;46.73;44.50;;;14.90;88.70;;;;;;4344796;33;20150;-60
2022/03/21 12:08:48;;;;;;;47.90;45.63;;;15.00;88.60;;;;;;4370992;32;20216;-60
2022/03/21 12:11:49;;;;;;;49.40;47.30;;;15.10;87.80;;;;;;4376703;32;20165;-60
2022/03/21 12:14:29;;;;;;;53.80;51.30;;;15.10;88.00;;;;;;4375686;32;20140;-60
2022/03/21 12:17:39;;;;;;;57.70;55.13;;;15.20;88.20;;;;;;4375721;32;20251;-60
2022/03/21 12:20:10;;;;;;;56.43;53.97;;;15.20;88.60;;;;;;4376001;32;20208;-60
2022/03/21 12:22:40;;;;;;;58.40;55.83;;;15.30;89.00;;;;;;4390342;32;20202;-60
2022/03/21 12:25:10;;;;;;;58.60;55.97;;;15.40;89.10;;;;;;4375162;32;20196;-60
2022/03/21 12:27:40;;;;;;;62.67;59.87;;;15.40;88.40;;;;;;4376731;32;20453;-60
2022/03/21 12:30:34;;;;;;;64.37;61.70;;;15.40;88.80;;;;;;4375152;32;20173;-60
2022/03/21 12:33:23;;;;;;;66.80;63.97;;;15.40;89.00;;;;;;4391755;32;20572;-60
2022/03/21 12:36:13;;;;;;;63.30;60.40;;;15.40;89.10;;;;;;4391834;32;20192;-60
2022/03/21 12:38:43;;;;;;;73.33;69.97;;;15.40;88.90;;;;;;4359083;33;20255;-61
2022/03/21 12:41:13;;;;;;;70.63;67.50;;;15.50;90.00;;;;;;4355332;33;20168;-60
2022/03/21 12:43:52;;;;;;;81.00;77.57;;;15.60;89.80;;;;;;4343604;33;20219;-60
2022/03/21 12:46:20;;;;;;;67.13;64.27;;;15.60;90.10;;;;;;4343849;33;20512;-60
2022/03/21 12:48:49;;;;;;;79.47;75.83;;;15.60;90.00;;;;;;4344950;33;20150;-60
2022/03/21 12:51:26;;;;;;;77.33;73.80;;;15.50;90.10;;;;;;4344312;33;20164;-61
2022/03/21 12:53:57;;;;;;;85.13;81.30;;;15.50;90.40;;;;;;4344417;33;20227;-61
2022/03/21 12:56:27;;;;;;;84.43;80.87;;;15.50;90.70;;;;;;4343059;33;20207;-59
2022/03/21 12:58:59;;;;;;;83.47;79.93;;;15.60;90.40;;;;;;4356185;33;20203;-60
2022/03/21 13:01:26;;;;;;;78.60;75.13;;;15.60;90.50;;;;;;4356708;33;20319;-61
2022/03/21 13:10:32;;;;;;;87.90;84.20;;;15.50;90.40;;;;;;4345172;33;20227;-60
2022/03/21 13:12:32;;;;;;;79.23;75.80;;;15.50;91.30;;;;;;4346038;33;20203;-61
2022/03/21 13:15:07;;;;;;;91.23;87.20;;;15.50;90.90;;;;;;4358043;32;20148;-60